aviador You're here:

MKJS Decoded Metar

MONTEGO BAY in JAMAICA
Report Time2018-05-22 23:00:00
UTC Time2018-05-22 23:17:35
Flight Rules vfr VFR
Wind110° at 04 kt
W.Decomp.*RWY 07: 2.8 kt HW 2.9 kt RCW
W.Rank110° ranks 6
Current wind is below 110° avg. (6.1)
Visibility9999 m
Phenomena:N/A
Clouds:Few 022 Hf
Expected CloudBase > 1,200 ft AGL from Temp-Dew spread
CeilingNone
Temp28°C (ISA +13)
Dew Point25°C (84% RH)
Heat Index32.7°C
QNH1012 hPa
Density Alt1,949 ft
Elevation3 ft
Report Wrong Elevation
Raw Report
MKJS 222300Z 11004KT 9999 FEW022 28/25 Q1012=

Extra information for MKJS:More info

Metar Taf Metar & Taf Last 4 Metars F.Rules Stats Wind Profile Meteogram Temp Stats Airport Information Weather charts Add Link Nearby VenuesMetar ALERT Operation Metar Decoded Social comments